Time;durP1;ratioP1;P1;durP2;ratioP2;P2;SDS_P1;SDS_P2;PMS_P1;PMS_P2;Temp;Humidity;BMP_temperature;BMP_pressure;BME280_temperature;BME280_humidity;BME280_pressure;Samples;Min_cycle;Max_cycle;Signal;HPM_P1;HPM_P2
2021/04/05 00:01:08;;;;;;;29.23;13.13;;;;;;;4.43;79.58;100599.31;4997099;28;20049;-78
2021/04/05 00:03:33;;;;;;;29.83;12.55;;;;;;;4.44;79.36;100583.59;4994623;28;20049;-77
2021/04/05 00:05:59;;;;;;;28.13;13.07;;;;;;;4.36;79.91;100574.72;4978330;28;20073;-77
2021/04/05 00:08:24;;;;;;;31.70;13.63;;;;;;;4.37;79.81;100582.41;5010491;28;20069;-77
2021/04/05 00:10:53;;;;;;;28.88;13.77;;;;;;;4.37;79.75;100561.63;5008999;28;20066;-78
2021/04/05 00:13:25;;;;;;;31.10;13.80;;;;;;;4.38;79.82;100555.47;5002384;28;20044;-79
2021/04/05 00:15:51;;;;;;;32.63;14.18;;;;;;;4.39;79.48;100545.91;5017200;28;20034;-79
2021/04/05 00:18:18;;;;;;;31.70;14.50;;;;;;;4.39;80.45;100538.13;5002600;28;20030;-77
2021/04/05 00:21:08;;;;;;;32.28;15.25;;;;;;;4.40;79.81;100534.59;5008515;28;20057;-78
2021/04/05 00:23:34;;;;;;;30.77;13.95;;;;;;;4.41;79.85;100520.69;5018488;28;20262;-77
2021/04/05 00:26:04;;;;;;;32.60;14.15;;;;;;;4.47;79.46;100517.63;5009650;28;20044;-77
2021/04/05 00:28:30;;;;;;;37.10;14.07;;;;;;;4.48;78.92;100498.50;5019922;28;20049;-77
2021/04/05 00:30:56;;;;;;;28.20;14.68;;;;;;;4.53;79.45;100504.19;4992182;28;20057;-78
2021/04/05 00:33:22;;;;;;;30.40;14.90;;;;;;;4.53;79.36;100496.38;4996435;28;20471;-78
2021/04/05 00:35:49;;;;;;;36.15;15.23;;;;;;;4.56;79.32;100475.41;4993572;28;20080;-78
2021/04/05 00:38:15;;;;;;;34.05;16.00;;;;;;;4.60;78.87;100471.63;5020889;28;20063;-77
2021/04/05 00:40:45;;;;;;;32.20;16.23;;;;;;;4.57;78.66;100445.84;4980742;28;20041;-74
2021/04/05 00:43:13;;;;;;;33.33;16.38;;;;;;;4.56;79.27;100449.41;5009656;28;20109;-79
2021/04/05 00:45:39;;;;;;;36.08;17.05;;;;;;;4.61;78.93;100442.09;5020275;28;20053;-77
2021/04/05 00:48:05;;;;;;;37.58;16.70;;;;;;;4.71;78.06;100429.25;4994265;28;20045;-78
2021/04/05 00:50:34;;;;;;;33.88;16.50;;;;;;;4.74;78.06;100428.19;4998901;28;20069;-78
2021/04/05 00:53:05;;;;;;;33.90;16.45;;;;;;;4.71;78.85;100416.25;5025719;28;20137;-80
2021/04/05 00:55:32;;;;;;;37.08;16.95;;;;;;;4.74;77.92;100412.59;4999325;28;20101;-79
2021/04/05 00:57:58;;;;;;;40.80;18.13;;;;;;;4.70;78.12;100411.19;5001203;28;20034;-78
2021/04/05 01:00:39;;;;;;;37.92;18.17;;;;;;;4.74;78.68;100399.59;4980954;28;20038;-77
2021/04/05 01:03:07;;;;;;;38.20;17.83;;;;;;;4.79;77.10;100400.09;4980690;28;20049;-77
2021/04/05 01:05:33;;;;;;;33.28;17.83;;;;;;;4.77;78.38;100392.41;5019385;28;20140;-77
2021/04/05 01:07:59;;;;;;;36.60;18.15;;;;;;;4.78;78.07;100396.63;4993638;28;20163;-76
2021/04/05 01:10:25;;;;;;;35.78;17.85;;;;;;;4.78;77.55;100388.84;4993290;28;20046;-78
2021/04/05 01:12:51;;;;;;;33.30;18.25;;;;;;;4.70;78.22;100369.59;4991050;28;20047;-77
2021/04/05 01:15:18;;;;;;;36.58;18.30;;;;;;;4.74;77.87;100364.03;4967505;28;20688;-77
2021/04/05 01:17:45;;;;;;;34.42;18.65;;;;;;;4.72;77.92;100352.94;5022103;28;20065;-77
2021/04/05 01:20:12;;;;;;;35.35;19.05;;;;;;;4.76;78.33;100361.34;5017615;28;20135;-77
2021/04/05 01:22:39;;;;;;;35.88;17.90;;;;;;;4.75;78.13;100344.09;4994707;28;20046;-78
2021/04/05 01:25:10;;;;;;;37.25;18.45;;;;;;;4.80;77.66;100352.34;5022279;28;20034;-77
2021/04/05 01:27:36;;;;;;;29.67;17.65;;;;;;;4.75;78.38;100333.72;5022591;28;20080;-77
2021/04/05 01:30:08;;;;;;;34.03;18.35;;;;;;;4.79;77.38;100327.31;4985146;28;20045;-78
2021/04/05 01:32:33;;;;;;;36.88;18.60;;;;;;;4.79;78.00;100322.94;5001508;28;20431;-78
2021/04/05 01:34:59;;;;;;;35.03;18.30;;;;;;;4.80;78.33;100323.75;4995795;28;20100;-78
2021/04/05 01:37:24;;;;;;;33.08;18.67;;;;;;;4.81;77.87;100328.84;4996642;28;20046;-79
2021/04/05 01:39:50;;;;;;;33.88;17.13;;;;;;;4.81;78.21;100318.47;4994801;28;20050;-77
2021/04/05 01:42:15;;;;;;;35.63;17.80;;;;;;;4.79;78.39;100309.97;4983508;28;20041;-79
2021/04/05 01:44:41;;;;;;;39.45;17.42;;;;;;;4.83;78.48;100303.56;5019388;28;20052;-77
2021/04/05 01:47:10;;;;;;;37.28;17.35;;;;;;;4.85;78.55;100286.06;5013285;28;20042;-78
2021/04/05 01:49:38;;;;;;;39.42;18.95;;;;;;;4.88;78.09;100261.66;5020350;28;20087;-78
2021/04/05 01:52:11;;;;;;;31.83;16.70;;;;;;;4.84;78.23;100248.06;5022390;28;20435;-79
2021/04/05 01:54:36;;;;;;;34.50;18.20;;;;;;;4.82;78.78;100247.34;5013547;28;20034;-79
2021/04/05 01:57:02;;;;;;;32.88;17.42;;;;;;;4.91;77.68;100234.56;4994985;28;20050;-76
2021/04/05 01:59:28;;;;;;;35.60;17.92;;;;;;;4.89;77.94;100232.09;5002513;28;20061;-78
2021/04/05 02:01:54;;;;;;;34.42;16.27;;;;;;;4.83;78.46;100210.00;4982101;28;20037;-78
2021/04/05 02:04:19;;;;;;;31.48;17.15;;;;;;;4.91;78.02;100211.19;4985034;28;20440;-77
2021/04/05 02:06:46;;;;;;;36.90;17.00;;;;;;;4.88;78.42;100189.69;4991982;28;20045;-76
2021/04/05 02:09:13;;;;;;;34.55;16.35;;;;;;;4.92;78.61;100195.47;4965682;28;20042;-78
2021/04/05 02:11:39;;;;;;;35.67;17.30;;;;;;;4.96;78.42;100177.84;5006006;28;20065;-79
2021/04/05 02:14:08;;;;;;;32.60;16.77;;;;;;;4.92;78.18;100166.06;4989834;28;20042;-78
2021/04/05 02:16:34;;;;;;;32.67;16.45;;;;;;;4.95;79.00;100155.41;5027166;28;20053;-78
2021/04/05 02:19:01;;;;;;;41.53;16.90;;;;;;;5.00;78.45;100154.09;4991800;28;20488;-78
2021/04/05 02:21:28;;;;;;;35.38;15.85;;;;;;;4.96;78.90;100133.69;5017696;28;20034;-78
2021/04/05 02:23:55;;;;;;;33.97;16.35;;;;;;;5.03;78.35;100129.63;4995998;28;20062;-79
2021/04/05 02:26:26;;;;;;;33.20;15.55;;;;;;;5.03;78.82;100121.84;5024796;28;20078;-78
2021/04/05 02:28:59;;;;;;;34.47;16.55;;;;;;;5.04;78.77;100119.09;4997441;28;20100;-78
2021/04/05 02:31:30;;;;;;;30.95;16.08;;;;;;;4.98;79.32;100085.81;4978778;28;20073;-77
2021/04/05 02:33:57;;;;;;;40.17;16.17;;;;;;;5.14;79.27;100111.38;4979641;28;20050;-78
2021/04/05 02:36:26;;;;;;;33.42;16.05;;;;;;;5.07;79.87;100086.84;4995130;28;20042;-77
2021/04/05 02:38:57;;;;;;;33.65;15.98;;;;;;;5.08;79.43;100072.88;5019019;28;20042;-79
2021/04/05 02:41:24;;;;;;;38.55;15.65;;;;;;;5.16;78.96;100073.06;4977476;28;20049;-77
2021/04/05 02:43:52;;;;;;;39.13;15.40;;;;;;;5.12;79.14;100061.25;4987125;28;20061;-78
2021/04/05 02:46:22;;;;;;;36.10;16.60;;;;;;;5.21;79.42;100054.47;5011438;28;20782;-77
2021/04/05 02:48:49;;;;;;;37.50;15.43;;;;;;;5.23;79.54;100052.56;4982222;28;20875;-78
2021/04/05 02:51:16;;;;;;;34.50;15.73;;;;;;;5.19;80.21;100043.38;5030690;28;20087;-77
2021/04/05 02:53:49;;;;;;;34.08;15.35;;;;;;;5.20;79.92;100039.84;4987042;28;20065;-77
2021/04/05 02:56:15;;;;;;;34.38;15.70;;;;;;;5.17;81.12;100047.88;4995219;28;20095;-77
2021/04/05 02:58:44;;;;;;;39.30;15.93;;;;;;;5.15;81.26;100026.41;5022134;28;20107;-78
2021/04/05 03:01:11;;;;;;;35.47;15.15;;;;;;;5.15;80.50;100021.19;4996070;28;20042;-77
2021/04/05 03:03:38;;;;;;;44.45;15.50;;;;;;;5.15;80.62;100010.81;5011499;28;20401;-78
2021/04/05 03:06:05;;;;;;;35.80;15.45;;;;;;;5.14;81.32;100007.38;5023478;28;20065;-76
2021/04/05 03:08:31;;;;;;;33.88;14.98;;;;;;;5.17;81.36;100007.09;5011596;28;20398;-77
2021/04/05 03:10:57;;;;;;;38.38;15.65;;;;;;;5.22;81.18;100010.16;5022241;28;20136;-77
2021/04/05 03:13:26;;;;;;;40.05;14.95;;;;;;;5.17;81.19;99995.88;5012349;28;20056;-76
2021/04/05 03:15:53;;;;;;;38.13;15.73;;;;;;;5.20;81.63;99993.84;4994187;28;20416;-78
2021/04/05 03:18:20;;;;;;;40.55;15.55;;;;;;;5.20;81.94;99983.47;5018582;28;20111;-77
2021/04/05 03:20:47;;;;;;;35.95;15.82;;;;;;;5.20;81.67;99983.47;5010677;28;20735;-77
2021/04/05 03:23:15;;;;;;;31.77;14.18;;;;;;;5.14;82.41;99970.13;5000951;28;20501;-76
2021/04/05 03:25:41;;;;;;;35.80;15.20;;;;;;;5.16;82.75;99983.84;5012221;28;20048;-75
2021/04/05 03:28:07;;;;;;;45.60;15.70;;;;;;;5.17;83.42;99973.31;5002879;28;20066;-78
2021/04/05 03:30:42;;;;;;;34.72;15.63;;;;;;;5.06;84.42;99952.59;5017489;28;20038;-77
2021/04/05 03:33:16;;;;;;;35.78;15.93;;;;;;;5.00;85.12;99959.13;5017576;28;20053;-78
2021/04/05 03:35:45;;;;;;;34.22;15.13;;;;;;;4.94;86.32;99953.66;5019286;28;20041;-78
2021/04/05 03:38:12;;;;;;;38.10;16.02;;;;;;;4.84;86.97;99940.59;5015788;28;20378;-78
2021/04/05 03:40:43;;;;;;;45.05;17.52;;;;;;;4.83;88.27;99939.78;5014573;28;20409;-77
2021/04/05 03:43:20;;;;;;;36.78;16.48;;;;;;;4.77;89.02;99931.69;5014148;28;20381;-77
2021/04/05 03:45:54;;;;;;;38.92;17.20;;;;;;;4.67;89.39;99924.66;5013817;28;20504;-79
2021/04/05 03:48:35;;;;;;;43.50;17.10;;;;;;;4.63;90.58;99915.47;5021589;28;20063;-79
2021/04/05 03:51:16;;;;;;;45.33;18.73;;;;;;;4.61;90.72;99919.94;4995700;28;20053;-75
2021/04/05 03:53:52;;;;;;;38.75;17.90;;;;;;;4.63;91.09;99906.84;4998150;28;20062;-77
2021/04/05 03:56:21;;;;;;;36.55;18.67;;;;;;;4.61;91.00;99901.78;4994246;28;20484;-77
2021/04/05 03:58:50;;;;;;;41.72;17.95;;;;;;;4.64;91.48;99905.91;4994707;28;20054;-79
2021/04/05 04:01:20;;;;;;;42.50;17.42;;;;;;;4.64;91.68;99903.31;5026713;28;20099;-77
2021/04/05 04:03:58;;;;;;;38.22;17.88;;;;;;;4.60;91.82;99894.94;5011746;28;20053;-77
2021/04/05 04:06:52;;;;;;;36.53;18.05;;;;;;;4.58;92.64;99889.06;4995079;28;20042;-76
2021/04/05 04:09:20;;;;;;;50.55;19.45;;;;;;;4.54;93.11;99889.44;5001597;28;20038;-78
2021/04/05 04:11:49;;;;;;;51.50;19.58;;;;;;;4.54;93.60;99889.44;4994655;28;20040;-76
2021/04/05 04:14:17;;;;;;;41.53;18.92;;;;;;;4.58;94.13;99888.25;5022315;28;20499;-77
2021/04/05 04:16:45;;;;;;;45.22;20.00;;;;;;;4.59;93.81;99892.47;5014486;28;20034;-75
2021/04/05 04:19:11;;;;;;;44.70;19.30;;;;;;;4.52;94.54;99878.34;5023476;28;20045;-78
2021/04/05 04:21:40;;;;;;;43.72;20.08;;;;;;;4.62;94.59;99897.44;5015598;28;20080;-77
2021/04/05 04:24:07;;;;;;;35.30;18.13;;;;;;;4.56;94.55;99890.13;4998131;28;20076;-79
2021/04/05 04:26:34;;;;;;;46.20;21.48;;;;;;;4.51;95.54;99905.28;5012388;28;20043;-78
2021/04/05 04:29:00;;;;;;;43.85;19.80;;;;;;;4.41;95.87;99905.22;5012761;28;20072;-77
2021/04/05 04:31:25;;;;;;;41.20;19.17;;;;;;;4.42;96.03;99936.25;5018684;28;20045;-77
2021/04/05 04:33:51;;;;;;;38.30;18.42;;;;;;;4.34;96.57;99936.06;5019234;28;20095;-76
2021/04/05 04:36:23;;;;;;;28.83;13.02;;;;;;;4.27;95.68;99932.31;5002893;28;20095;-77
2021/04/05 04:38:56;;;;;;;14.55;7.20;;;;;;;3.96;95.16;99937.41;5027241;28;20037;-78
2021/04/05 04:41:29;;;;;;;4.10;2.42;;;;;;;3.65;93.62;99949.41;4991795;28;20460;-78
2021/04/05 04:43:59;;;;;;;5.32;2.10;;;;;;;3.63;93.51;99946.09;5019124;28;20076;-77
2021/04/05 04:46:25;;;;;;;3.00;1.67;;;;;;;3.53;94.63;99950.38;4996288;28;20050;-76
2021/04/05 04:49:08;;;;;;;4.50;1.58;;;;;;;3.43;95.00;99955.47;4999696;28;20053;-75
2021/04/05 04:51:35;;;;;;;5.10;1.45;;;;;;;3.42;94.17;99946.84;5011087;28;20053;-77
2021/04/05 04:54:03;;;;;;;3.58;0.85;;;;;;;3.17;94.24;99940.16;5016713;28;20069;-78
2021/04/05 04:56:29;;;;;;;1.90;0.60;;;;;;;3.04;95.36;99940.28;5003989;28;20064;-79
2021/04/05 04:59:00;;;;;;;3.22;0.82;;;;;;;3.03;94.31;99930.03;4997403;28;20041;-78
2021/04/05 05:01:28;;;;;;;2.83;0.80;;;;;;;2.98;93.58;99929.56;4978012;28;20041;-77
2021/04/05 05:03:57;;;;;;;0.75;0.47;;;;;;;2.92;93.27;99938.63;4990163;28;20049;-77
2021/04/05 05:06:25;;;;;;;3.90;0.60;;;;;;;2.91;93.32;99934.38;5018201;28;20045;-78
2021/04/05 05:08:51;;;;;;;2.63;0.70;;;;;;;2.83;94.51;99927.19;4986146;28;20044;-77
2021/04/05 05:11:17;;;;;;;1.63;0.60;;;;;;;2.94;93.09;99939.34;4993587;28;20046;-79
2021/04/05 05:13:42;;;;;;;7.10;0.80;;;;;;;2.90;94.10;99935.31;5001030;28;20042;-78
2021/04/05 05:16:09;;;;;;;5.22;0.98;;;;;;;2.83;94.90;99942.75;5018066;28;20042;-78
2021/04/05 05:18:36;;;;;;;7.22;1.00;;;;;;;2.80;95.64;99939.56;4992121;28;20080;-77
2021/04/05 05:21:04;;;;;;;9.65;1.80;;;;;;;2.82;96.21;99946.25;5013004;28;20045;-78
2021/04/05 05:23:33;;;;;;;7.45;1.40;;;;;;;2.91;96.33;99939.56;4992614;28;20038;-79
2021/04/05 05:26:00;;;;;;;7.50;2.00;;;;;;;2.90;96.57;99953.44;4977714;28;20038;-78
2021/04/05 05:28:26;;;;;;;5.53;1.70;;;;;;;2.95;95.80;99922.84;4996893;28;20046;-77
2021/04/05 05:30:52;;;;;;;10.70;1.38;;;;;;;2.92;94.86;99946.41;5029468;28;20045;-78
2021/04/05 05:33:19;;;;;;;7.63;1.73;;;;;;;2.91;96.23;99953.34;5013238;28;20047;-77
2021/04/05 05:35:46;;;;;;;8.57;1.85;;;;;;;2.90;96.17;99951.69;5023202;28;20050;-78
2021/04/05 05:38:13;;;;;;;14.68;2.42;;;;;;;2.90;96.62;99956.88;4993523;28;20053;-77
2021/04/05 05:40:40;;;;;;;9.60;1.95;;;;;;;2.88;95.21;99957.91;5023824;28;20041;-78
2021/04/05 05:43:25;;;;;;;12.57;1.77;;;;;;;2.88;94.06;99960.50;5003786;28;20045;-77
2021/04/05 05:45:56;;;;;;;8.88;1.73;;;;;;;2.89;93.72;99954.41;4997724;28;20046;-77
2021/04/05 05:48:45;;;;;;;12.05;1.77;;;;;;;2.82;94.37;99959.22;5008211;28;20137;-78
2021/04/05 05:51:49;;;;;;;12.18;1.77;;;;;;;2.80;93.74;99978.41;5024180;28;20080;-77
2021/04/05 05:54:34;;;;;;;9.05;1.45;;;;;;;2.71;93.32;99967.81;4981536;28;20050;-77
2021/04/05 05:57:11;;;;;;;8.13;1.95;;;;;;;2.59;93.77;99973.06;5011967;28;20062;-78
2021/04/05 05:59:57;;;;;;;16.25;2.08;;;;;;;2.73;94.45;99972.84;5017785;28;20497;-78
2021/04/05 06:02:38;;;;;;;12.60;1.77;;;;;;;2.68;94.26;99983.56;4992059;28;20117;-77
2021/04/05 06:05:31;;;;;;;12.50;2.13;;;;;;;2.68;94.16;99978.38;5029149;28;20471;-77
2021/04/05 06:08:11;;;;;;;13.18;1.63;;;;;;;2.51;93.58;99995.16;5015709;28;20061;-79
2021/04/05 06:10:50;;;;;;;8.70;1.13;;;;;;;2.29;93.93;100002.84;5018713;28;20500;-78
2021/04/05 06:13:55;;;;;;;5.57;0.88;;;;;;;2.31;93.43;100001.78;5015289;28;20091;-79
2021/04/05 06:16:32;;;;;;;10.57;1.40;;;;;;;2.16;92.34;99989.97;4928043;29;20060;-77
2021/04/05 06:19:18;;;;;;;14.25;1.40;;;;;;;2.02;92.69;99987.56;4914007;29;20040;-78
2021/04/05 06:21:49;;;;;;;9.48;1.80;;;;;;;2.13;93.04;99979.84;4979178;28;20045;-76
2021/04/05 06:24:42;;;;;;;8.25;1.40;;;;;;;2.06;93.48;99983.81;5010232;28;20092;-78
2021/04/05 06:27:14;;;;;;;6.25;1.42;;;;;;;1.93;92.83;99987.28;5023350;28;20136;-78
2021/04/05 06:30:02;;;;;;;13.20;1.80;;;;;;;2.03;93.51;99992.59;5015681;28;20104;-77
2021/04/05 06:32:53;;;;;;;16.20;1.98;;;;;;;2.04;94.83;99991.69;4985215;28;20045;-78
2021/04/05 06:35:41;;;;;;;6.60;1.50;;;;;;;2.24;93.88;99997.16;5011893;28;20049;-79
2021/04/05 06:38:30;;;;;;;13.32;2.03;;;;;;;2.13;94.48;100003.16;4994943;28;20523;-78
2021/04/05 06:41:00;;;;;;;8.93;1.70;;;;;;;2.14;93.82;100008.19;4991311;28;20144;-78
2021/04/05 06:43:45;;;;;;;11.63;1.40;;;;;;;2.00;93.55;100016.13;4978845;28;20053;-77
2021/04/05 06:46:21;;;;;;;10.90;1.60;;;;;;;1.94;93.29;100017.38;5018548;28;20483;-78
2021/04/05 06:49:22;;;;;;;8.65;1.48;;;;;;;1.87;93.52;100016.16;5001496;28;20052;-79
2021/04/05 06:52:30;;;;;;;8.45;1.52;;;;;;;1.72;92.91;100022.41;4992534;28;20074;-79
2021/04/05 06:55:11;;;;;;;13.40;2.53;;;;;;;1.91;91.51;100025.34;4991443;28;20045;-78
2021/04/05 06:58:06;;;;;;;9.57;2.03;;;;;;;1.64;93.37;100017.78;4997624;28;20053;-80
2021/04/05 07:00:41;;;;;;;15.27;2.72;;;;;;;1.64;92.65;100016.94;4990459;28;20037;-79
2021/04/05 07:03:40;;;;;;;12.52;2.80;;;;;;;1.77;94.33;100025.47;5012197;28;20369;-80
2021/04/05 07:06:37;;;;;;;8.30;2.03;;;;;;;1.83;93.43;100017.31;4996705;28;20049;-80
2021/04/05 07:09:10;;;;;;;10.00;1.70;;;;;;;1.95;93.35;100026.78;5024981;28;20072;-79
2021/04/05 07:11:45;;;;;;;12.13;1.85;;;;;;;1.79;93.93;100017.63;5019435;28;20516;-79
2021/04/05 07:14:37;;;;;;;6.00;1.10;;;;;;;1.92;93.18;100021.00;5011477;28;20524;-78
2021/04/05 07:17:20;;;;;;;4.55;1.02;;;;;;;2.04;92.44;100014.16;4998145;28;20053;-78
2021/04/05 07:19:58;;;;;;;4.80;0.85;;;;;;;2.09;92.36;100020.66;5020126;28;20038;-79
2021/04/05 07:22:50;;;;;;;10.38;1.17;;;;;;;2.12;93.15;100010.06;4995294;28;20392;-78
2021/04/05 07:25:35;;;;;;;7.05;1.55;;;;;;;2.26;91.97;100003.91;4994602;28;20882;-80
2021/04/05 07:28:13;;;;;;;12.63;1.40;;;;;;;2.24;91.47;100012.69;4974743;28;20485;-77
2021/04/05 07:30:46;;;;;;;12.90;1.73;;;;;;;2.25;91.84;100004.00;5014075;28;20042;-79
2021/04/05 07:33:28;;;;;;;14.38;2.00;;;;;;;2.17;89.32;99994.22;5012760;28;20057;-78
2021/04/05 07:36:09;;;;;;;14.15;1.85;;;;;;;2.29;91.58;100015.78;4994097;28;20091;-79
2021/04/05 07:38:53;;;;;;;11.68;2.13;;;;;;;2.37;91.95;100008.28;4978301;28;20118;-78
2021/04/05 07:41:44;;;;;;;12.40;2.33;;;;;;;2.30;92.32;100014.88;4992706;28;20049;-78
2021/04/05 07:44:39;;;;;;;15.10;2.17;;;;;;;2.36;92.17;100014.41;4995095;28;20088;-78
2021/04/05 07:47:14;;;;;;;13.20;2.08;;;;;;;2.52;90.54;100012.38;5011628;28;20049;-79
2021/04/05 07:49:55;;;;;;;10.60;1.80;;;;;;;2.63;90.48;100011.56;5029475;28;20048;-77
2021/04/05 07:52:37;;;;;;;15.95;2.03;;;;;;;2.53;91.85;100015.78;4993760;28;20035;-79
2021/04/05 07:55:04;;;;;;;12.85;1.85;;;;;;;2.46;91.35;100035.28;4964496;28;20049;-79
2021/04/05 07:57:50;;;;;;;10.63;1.80;;;;;;;1.98;90.02;100025.75;4993291;28;20056;-77
2021/04/05 08:00:23;;;;;;;10.25;1.63;;;;;;;1.87;91.62;100029.09;4978216;28;20066;-77
2021/04/05 08:03:13;;;;;;;13.48;1.90;;;;;;;2.20;93.83;100025.03;5001518;28;20034;-78
2021/04/05 08:06:00;;;;;;;20.00;2.05;;;;;;;2.83;92.25;100033.41;5014681;28;20046;-78
2021/04/05 08:08:55;;;;;;;18.30;1.98;;;;;;;2.96;91.00;100029.88;4996845;28;20057;-78
2021/04/05 08:11:27;;;;;;;11.05;1.67;;;;;;;2.99;89.90;100034.84;4981481;28;20072;-79
2021/04/05 08:13:58;;;;;;;15.25;2.03;;;;;;;3.05;86.99;100030.03;5014467;28;20500;-79
2021/04/05 08:17:01;;;;;;;15.73;1.80;;;;;;;3.32;87.21;100031.47;4989694;28;20046;-79
2021/04/05 08:19:43;;;;;;;10.83;1.30;;;;;;;3.89;87.97;100017.50;4988274;28;20144;-79
2021/04/05 08:22:46;;;;;;;12.80;1.35;;;;;;;3.19;82.95;100039.34;5031557;28;20331;-79
2021/04/05 08:25:25;;;;;;;9.43;1.70;;;;;;;2.66;84.88;100037.22;5004784;28;20092;-80
2021/04/05 08:28:22;;;;;;;5.20;1.20;;;;;;;2.35;86.91;100046.41;5009700;28;20060;-80
2021/04/05 08:31:25;;;;;;;4.60;1.52;;;;;;;2.18;86.77;100051.97;5025303;28;20038;-80
2021/04/05 08:34:46;;;;;;;3.05;0.73;;;;;;;2.03;85.64;100069.41;5005986;28;20049;-80
2021/04/05 08:37:53;;;;;;;1.40;0.40;;;;;;;2.14;87.01;100074.63;5030008;28;20045;-78
2021/04/05 08:40:29;;;;;;;1.45;0.38;;;;;;;2.16;86.15;100077.13;4996041;28;20057;-78
2021/04/05 08:43:18;;;;;;;1.38;0.20;;;;;;;2.38;85.93;100089.38;5013038;28;20554;-78
2021/04/05 08:46:08;;;;;;;1.85;0.30;;;;;;;2.25;84.24;100105.75;5033021;28;20044;-78
2021/04/05 08:48:36;;;;;;;1.27;0.20;;;;;;;2.16;85.33;100116.75;5013676;28;20381;-77
2021/04/05 08:51:08;;;;;;;4.13;0.32;;;;;;;1.75;82.08;100118.69;5003811;28;20050;-78
2021/04/05 08:53:39;;;;;;;1.77;0.30;;;;;;;2.04;86.92;100118.44;5001757;28;20042;-79
2021/04/05 08:56:07;;;;;;;1.67;0.30;;;;;;;2.28;87.59;100123.66;4976379;28;20125;-78
2021/04/05 08:58:39;;;;;;;1.25;0.30;;;;;;;2.07;84.06;100132.91;4989481;28;20080;-79
2021/04/05 09:01:09;;;;;;;0.68;0.32;;;;;;;2.02;84.67;100146.19;4979411;28;20042;-78
2021/04/05 09:03:37;;;;;;;2.05;0.30;;;;;;;1.63;86.22;100155.72;5004063;28;20050;-79
2021/04/05 09:06:11;;;;;;;4.60;0.30;;;;;;;-0.05;88.92;100189.59;5008043;28;20056;-79
2021/04/05 09:08:37;;;;;;;4.93;0.60;;;;;;;-0.36;87.97;100187.19;5026343;28;20120;-81
2021/04/05 09:11:07;;;;;;;5.22;0.60;;;;;;;-0.22;88.01;100202.66;4983588;28;20054;-78
2021/04/05 09:13:47;;;;;;;6.60;0.68;;;;;;;0.26;90.43;100210.13;4990699;28;20135;-78
2021/04/05 09:16:21;;;;;;;4.55;0.73;;;;;;;0.97;89.25;100211.72;5013670;28;20050;-79
2021/04/05 09:19:13;;;;;;;4.35;0.68;;;;;;;1.19;82.50;100197.41;4987923;28;20045;-77
2021/04/05 09:22:00;;;;;;;4.60;0.90;;;;;;;1.61;82.58;100203.28;5005667;28;20053;-77
2021/04/05 09:24:51;;;;;;;11.20;1.15;;;;;;;1.58;80.96;100201.72;5017004;28;20049;-79
2021/04/05 09:27:54;;;;;;;6.97;1.00;;;;;;;1.72;81.69;100193.06;5029399;28;20393;-79
2021/04/05 09:30:39;;;;;;;7.20;1.17;;;;;;;1.82;80.54;100201.84;4983478;28;20038;-78
2021/04/05 09:33:44;;;;;;;10.85;1.10;;;;;;;2.07;81.17;100189.81;4999341;28;20088;-76
2021/04/05 09:36:29;;;;;;;8.95;1.30;;;;;;;1.95;75.85;100187.16;5011340;28;20110;-78
2021/04/05 09:39:32;;;;;;;8.68;1.48;;;;;;;1.97;77.54;100188.81;5001010;28;20115;-79
2021/04/05 09:42:03;;;;;;;19.20;1.55;;;;;;;1.87;76.50;100189.44;4979029;28;20042;-78
2021/04/05 09:44:44;;;;;;;10.57;1.48;;;;;;;2.16;75.99;100186.63;5000131;28;20101;-78
2021/04/05 09:47:22;;;;;;;10.18;1.80;;;;;;;2.53;77.70;100179.69;5019156;28;20050;-77
2021/04/05 09:50:08;;;;;;;13.55;2.10;;;;;;;2.73;70.12;100173.09;5014956;28;20092;-78
2021/04/05 09:52:46;;;;;;;10.82;1.73;;;;;;;3.37;74.95;100179.72;4996034;28;20062;-77
2021/04/05 09:55:14;;;;;;;15.18;2.25;;;;;;;3.51;73.16;100176.91;5007342;28;20424;-77
2021/04/05 09:58:01;;;;;;;15.45;2.63;;;;;;;3.70;75.79;100178.13;5007820;28;20112;-78
2021/04/05 10:00:28;;;;;;;16.88;2.42;;;;;;;3.86;73.52;100182.97;5023270;28;20046;-78
2021/04/05 10:03:03;;;;;;;12.90;1.85;;;;;;;4.05;74.77;100164.22;5011763;28;20046;-79
2021/04/05 10:05:33;;;;;;;10.95;1.77;;;;;;;3.51;64.63;100182.09;5013072;28;20049;-78
2021/04/05 10:08:00;;;;;;;17.02;2.50;;;;;;;3.27;72.31;100191.69;5001375;28;20041;-78
2021/04/05 10:10:28;;;;;;;17.77;1.90;;;;;;;3.14;71.07;100190.94;5004914;28;20042;-78
2021/04/05 10:12:56;;;;;;;18.48;1.90;;;;;;;2.70;73.83;100173.31;5014128;28;20634;-77
2021/04/05 10:15:25;;;;;;;18.75;2.25;;;;;;;2.52;73.40;100187.56;5019053;28;20037;-78
2021/04/05 10:17:59;;;;;;;14.68;2.10;;;;;;;2.70;75.40;100181.09;5034145;28;20037;-79
2021/04/05 10:20:27;;;;;;;17.10;2.60;;;;;;;3.24;73.06;100184.13;4996329;28;20041;-77
2021/04/05 10:22:54;;;;;;;13.52;2.35;;;;;;;3.72;69.54;100189.19;5011402;28;20420;-79
2021/04/05 10:25:23;;;;;;;10.90;1.60;;;;;;;4.12;67.39;100178.38;5014012;28;20049;-77
2021/04/05 10:27:53;;;;;;;11.23;1.67;;;;;;;4.20;57.17;100175.19;4999062;28;20473;-77
2021/04/05 10:30:21;;;;;;;7.50;1.13;;;;;;;4.23;60.63;100182.75;5004120;28;20550;-78
2021/04/05 10:32:47;;;;;;;7.72;1.45;;;;;;;4.38;59.31;100178.94;5007695;28;20079;-77
2021/04/05 10:35:17;;;;;;;10.38;1.80;;;;;;;4.65;59.44;100173.34;4999120;28;20048;-80
2021/04/05 10:37:45;;;;;;;13.90;1.50;;;;;;;4.52;56.43;100149.31;5000901;28;20045;-77
2021/04/05 10:40:17;;;;;;;9.95;1.52;;;;;;;4.52;55.97;100174.44;5026607;28;20124;-77
2021/04/05 10:42:53;;;;;;;12.23;1.58;;;;;;;4.71;58.03;100181.59;5012445;28;20518;-77
2021/04/05 10:45:30;;;;;;;10.30;1.75;;;;;;;5.15;54.64;100178.00;5020038;28;20489;-78
2021/04/05 10:48:20;;;;;;;10.25;1.42;;;;;;;5.12;51.60;100174.81;4990299;28;20049;-77
2021/04/05 10:50:55;;;;;;;9.18;1.90;;;;;;;5.49;56.99;100177.00;5006415;28;20045;-76
2021/04/05 10:53:23;;;;;;;12.65;2.20;;;;;;;5.80;53.15;100186.50;5005425;28;20045;-77
2021/04/05 10:55:55;;;;;;;12.07;1.90;;;;;;;5.67;53.16;100196.31;4994091;28;20076;-76
2021/04/05 10:58:28;;;;;;;10.77;2.35;;;;;;;5.16;55.61;100194.41;5011669;28;20690;-79
2021/04/05 11:00:57;;;;;;;12.10;2.63;;;;;;;4.48;54.63;100205.84;5012295;28;20038;-78
2021/04/05 11:03:27;;;;;;;12.93;2.45;;;;;;;4.64;56.76;100200.25;5020042;28;20041;-78
2021/04/05 11:05:56;;;;;;;11.48;1.88;;;;;;;5.13;57.40;100200.72;5011391;28;20046;-77
2021/04/05 11:08:27;;;;;;;10.93;2.10;;;;;;;5.49;52.28;100211.66;4996000;28;20054;-78
2021/04/05 11:11:01;;;;;;;13.98;2.92;;;;;;;6.12;52.08;100188.19;4992213;28;21359;-77
2021/04/05 11:13:27;;;;;;;11.13;1.70;;;;;;;6.10;50.79;100213.50;5010565;28;20117;-77
2021/04/05 11:15:53;;;;;;;9.10;1.63;;;;;;;5.59;52.16;100207.31;5012239;28;20052;-77
2021/04/05 11:18:21;;;;;;;7.82;1.48;;;;;;;5.38;45.09;100216.91;5017285;28;20122;-76
2021/04/05 11:20:50;;;;;;;9.27;1.38;;;;;;;5.40;49.37;100209.78;4993136;28;20050;-78
2021/04/05 11:23:19;;;;;;;5.75;1.30;;;;;;;5.78;52.27;100211.00;4996969;28;20509;-78
2021/04/05 11:25:48;;;;;;;7.00;1.20;;;;;;;5.55;49.41;100205.94;4959514;28;20273;-78
2021/04/05 11:28:23;;;;;;;6.65;1.10;;;;;;;5.54;46.27;100209.50;5012205;28;20044;-76
2021/04/05 11:30:54;;;;;;;8.98;1.30;;;;;;;5.14;46.69;100220.56;5008465;28;20558;-78
2021/04/05 11:33:26;;;;;;;7.37;1.70;;;;;;;4.71;45.79;100197.16;4994157;28;20042;-77
2021/04/05 11:35:54;;;;;;;6.17;0.97;;;;;;;4.96;49.45;100212.47;4996524;28;20515;-77
2021/04/05 11:38:21;;;;;;;8.43;1.20;;;;;;;5.04;51.37;100204.88;4997168;28;20121;-76
2021/04/05 11:40:49;;;;;;;7.57;1.40;;;;;;;4.93;52.91;100217.06;5009737;28;20112;-78
2021/04/05 11:43:20;;;;;;;9.70;1.73;;;;;;;4.66;54.15;100236.53;5017510;28;20046;-77
2021/04/05 11:45:54;;;;;;;11.35;2.08;;;;;;;5.06;56.26;100235.94;5019756;28;20140;-76
2021/04/05 11:48:22;;;;;;;16.33;2.05;;;;;;;4.98;52.93;100223.56;4997756;28;20399;-76
2021/04/05 11:50:49;;;;;;;6.75;1.42;;;;;;;5.35;54.38;100223.19;5004794;28;20053;-77
2021/04/05 11:53:29;;;;;;;12.00;2.08;;;;;;;5.89;55.09;100238.72;4977612;28;20049;-77
2021/04/05 11:56:03;;;;;;;11.45;1.70;;;;;;;4.85;52.04;100257.50;4998679;28;20087;-77
2021/04/05 11:58:34;;;;;;;9.70;1.30;;;;;;;4.00;59.34;100247.63;5016116;28;20047;-74